Terminal Aerodrome Forecast
Issued by NWS Tampa Bay Area, FL

Home | Current Version | Previous Version | Text Only | Print | Product List | Glossary On
Versions: 1 2 3 4 5 6 7 8 9 10 11 12 13 14 15 16
000
FTUS42 KTBW 251105 AAA
TAFFMY
TAF AMD
KFMY 251105Z 2511/2606 22011KT P6SM SCT025 BKN040
      TEMPO 2511/2512 3SM SHRA BR BKN025 OVC040
     FM252200 29010G15KT P6SM FEW010 SCT035
     FM260100 31007KT P6SM SCT090
     FM260200 01006KT P6SM SCT200=

USA.gov is the U.S. government's official web portal to all federal, state and local government web resources and services.